Main page
METAR-TAF:

METAR-TAF

Airports :

Győr-Pér International Airport

Győr, Hungary

latitude: 47-37-28N, longitude: 017-48-49E, elevation: 129 m

Current weather observation

The report was made 21 minutes ago, at 18:45 UTC
Wind 3 kt from the East/Northeast
Temperature 5°C
Humidity 100%
Pressure 1018 hPa
Visibility: 6000 m
Overcast at a height of 1000 ft

METAR: LHPR 211845Z AUTO 07003KT 6000 OVC010 05/05 Q1018 RMK GRN

Time: 20:06 (19:06 UTC)

Forecast

The report was made 1 hour and 51 minutes ago, at 17:15 UTC
Forecast valid from 21 at 18 UTC to 22 at 03 UTC
Wind 4 kt from the East/Southeast
Visibility: 6000 m
Overcast at a height of 1600 ft
Temporary
from 21 at 18 UTC to 22 at 03 UTC
Visibility: 1500 m
Overcast at a height of 500 ft
light drizzle, mist

TAF: LHPR 211715Z 2118/2203 11004KT 6000 OVC016 TEMPO 2118/2203 1500 -DZ BR OVC005

Weather observations and forecasts of more than 4000 airports (METAR and TAF reports).

The available stations are represented by yellow and red dots on the map.

Hover mouse over dot to see the name of the station.

Then click to see weather observations and forecasts.

To change the map : click on the green buttons with a black cross to zoom in, on the green button with a dash to zoom out, or on the green arrows for adjacent maps.


METAR-TAF: